Rarden, Ohio
Current Conditions -  °F | °C
As of 2:15 PM on Friday 24 Oct 2014 (Local Time) from KDWU Reporting Station
Clear Clear  
Wind Chill: 63°   Ceiling: Unl
Heat Index: 63°   Visibility: 10mi
Dew Point: 39°   Wind: 3mph
Humidity: 42%   Direction: 290°WNW
Pressure: 30.06"   Gusts: NA
Location:  38.92°N, 83.24°W
Report Text: KDWU 241815Z AUTO 29003KT 10SM CLR 17/04 A3006 RMK AO1
Loading
Personal Weather Stations






























Interactive Weather Map
Tropical Storm Tracking
New forecast layout! Learn more

10-Day Weather Forecast

Advertisements
Track Severe Weather on mobile